createdAt,value
2018-07-16T00:00:18.114Z,101273.81
2018-07-16T00:02:46.702Z,101270.63
2018-07-16T00:05:14.995Z,101267.64
2018-07-16T00:07:43.311Z,101267.64
2018-07-16T00:10:12.355Z,101268.98
2018-07-16T00:12:40.604Z,101269.49
2018-07-16T00:15:08.965Z,101270.87
2018-07-16T00:17:37.349Z,101264.09
2018-07-16T00:20:06.036Z,101269.78
2018-07-16T00:22:34.323Z,101263.80
2018-07-16T00:25:02.688Z,101262.33
2018-07-16T00:27:31.104Z,101263.23
2018-07-16T00:29:59.375Z,101259.15
2018-07-16T00:32:27.637Z,101263.47
2018-07-16T00:34:55.956Z,101257.53
2018-07-16T00:37:24.233Z,101266.80
2018-07-16T00:39:52.561Z,101262.72
2018-07-16T00:42:20.805Z,101263.48
2018-07-16T00:44:49.160Z,101274.48
2018-07-16T00:47:17.459Z,101268.50
2018-07-16T00:49:46.186Z,101269.62
2018-07-16T00:52:14.464Z,101265.25
2018-07-16T00:54:42.805Z,101264.09
2018-07-16T00:57:11.188Z,101267.73
2018-07-16T00:59:39.529Z,101265.31
2018-07-16T01:02:07.875Z,101262.60
2018-07-16T01:04:36.205Z,101263.09
2018-07-16T01:07:04.551Z,101258.30
2018-07-16T01:09:32.873Z,101266.92
2018-07-16T01:12:01.215Z,101260.78
2018-07-16T01:14:29.857Z,101262.45
2018-07-16T01:16:58.378Z,101258.16
2018-07-16T01:19:26.827Z,101256.67
2018-07-16T01:21:55.162Z,101258.42
2018-07-16T01:24:23.519Z,101260.34
2018-07-16T01:26:51.935Z,101257.81
2018-07-16T01:29:20.251Z,101257.56
2018-07-16T01:31:48.598Z,101250.98
2018-07-16T01:34:16.909Z,101249.95
2018-07-16T01:36:45.290Z,101260.17
2018-07-16T01:39:13.839Z,101258.33
2018-07-16T01:41:42.073Z,101261.73
2018-07-16T01:44:10.396Z,101252.06
2018-07-16T01:46:38.728Z,101256.54
2018-07-16T01:49:07.072Z,101246.95
2018-07-16T01:51:35.378Z,101251.93
2018-07-16T01:54:03.843Z,101256.51
2018-07-16T01:56:32.161Z,101250.63
2018-07-16T01:59:00.389Z,101245.31
2018-07-16T02:01:28.624Z,101245.78
2018-07-16T02:03:56.830Z,101245.73
2018-07-16T02:06:25.125Z,101249.19
2018-07-16T02:08:53.392Z,101244.50
2018-07-16T02:11:21.757Z,101239.64
2018-07-16T02:13:49.980Z,101242.94
2018-07-16T02:16:18.272Z,101243.27
2018-07-16T02:18:46.634Z,101238.94
2018-07-16T02:21:15.044Z,101234.14
2018-07-16T02:23:43.261Z,101233.77
2018-07-16T02:26:11.738Z,101236.27
2018-07-16T02:28:39.979Z,101234.64
2018-07-16T02:31:08.226Z,101237.37
2018-07-16T02:33:36.960Z,101234.14
2018-07-16T02:36:05.226Z,101227.09
2018-07-16T02:38:33.486Z,101225.44
2018-07-16T02:41:01.914Z,101226.09
2018-07-16T02:43:30.259Z,101230.06
2018-07-16T02:45:58.472Z,101227.80
2018-07-16T02:48:26.784Z,101231.77
2018-07-16T02:50:55.057Z,101235.07
2018-07-16T02:53:23.335Z,101238.72
2018-07-16T02:55:51.584Z,101233.50
2018-07-16T02:58:19.909Z,101236.09
2018-07-16T03:00:48.145Z,101234.50
2018-07-16T03:03:16.467Z,101228.69
2018-07-16T03:05:44.720Z,101231.48
2018-07-16T03:08:13.011Z,101218.41
2018-07-16T03:10:41.267Z,101216.54
2018-07-16T03:13:09.624Z,101216.48
2018-07-16T03:15:37.963Z,101223.45
2018-07-16T03:18:06.312Z,101225.58
2018-07-16T03:20:34.531Z,101230.56
2018-07-16T03:23:02.804Z,101228.71
2018-07-16T03:25:31.027Z,101227.16
2018-07-16T03:27:59.397Z,101234.52
2018-07-16T03:30:27.613Z,101231.27
2018-07-16T03:32:55.852Z,101236.83
2018-07-16T03:35:24.059Z,101235.43
2018-07-16T03:37:52.288Z,101236.37
2018-07-16T03:40:20.574Z,101233.11
2018-07-16T03:42:48.840Z,101235.12
2018-07-16T03:45:17.064Z,101237.53
2018-07-16T03:47:45.375Z,101245.61
2018-07-16T03:50:14.267Z,101240.29
2018-07-16T03:52:42.570Z,101242.59
2018-07-16T03:55:10.775Z,101239.27
2018-07-16T03:57:39.051Z,101240.13
2018-07-16T04:00:07.390Z,101241.83
2018-07-16T04:02:35.681Z,101235.83
2018-07-16T04:05:03.955Z,101229.43
2018-07-16T04:07:32.237Z,101220.19
2018-07-16T04:10:00.484Z,101223.69
2018-07-16T04:12:28.790Z,101226.07
2018-07-16T04:14:57.045Z,101220.48
2018-07-16T04:17:25.377Z,101220.81
2018-07-16T04:19:53.683Z,101215.87
2018-07-16T04:22:22.005Z,101217.45
2018-07-16T04:24:50.324Z,101220.97
2018-07-16T04:27:18.603Z,101230.84
2018-07-16T04:29:46.820Z,101235.80
2018-07-16T04:32:15.091Z,101235.58
2018-07-16T04:34:43.455Z,101238.42
2018-07-16T04:37:11.820Z,101233.14
2018-07-16T04:39:40.087Z,101231.98
2018-07-16T04:42:08.395Z,101234.68
2018-07-16T04:44:36.668Z,101239.59
2018-07-16T04:47:05.123Z,101240.16
2018-07-16T04:49:33.404Z,101243.00
2018-07-16T04:52:02.001Z,101243.55
2018-07-16T04:54:30.296Z,101239.07
2018-07-16T04:56:58.531Z,101240.55
2018-07-16T04:59:26.791Z,101243.41
2018-07-16T05:01:55.014Z,101242.14
2018-07-16T05:04:23.332Z,101247.84
2018-07-16T05:06:51.617Z,101238.78
2018-07-16T05:09:19.955Z,101234.77
2018-07-16T05:11:48.216Z,101235.84
2018-07-16T05:14:16.462Z,101233.44
2018-07-16T05:16:44.703Z,101234.56
2018-07-16T05:19:13.047Z,101234.03
2018-07-16T05:21:41.303Z,101234.88
2018-07-16T05:24:09.708Z,101232.75
2018-07-16T05:26:37.902Z,101232.20
2018-07-16T05:29:06.204Z,101227.88
2018-07-16T05:31:34.459Z,101230.06
2018-07-16T05:34:02.751Z,101230.10
2018-07-16T05:36:31.049Z,101227.34
2018-07-16T05:38:59.343Z,101232.00
2018-07-16T05:41:27.639Z,101228.77
2018-07-16T05:50:03.479Z,101225.23
2018-07-16T05:52:31.757Z,101223.62
2018-07-16T05:55:00.065Z,101226.59
2018-07-16T05:57:28.427Z,101222.26
2018-07-16T05:59:56.724Z,101222.52
2018-07-16T06:02:25.105Z,101221.72
2018-07-16T06:04:53.360Z,101216.28
2018-07-16T06:07:21.721Z,101218.45
2018-07-16T06:09:50.071Z,101210.81
2018-07-16T06:12:18.391Z,101208.37
2018-07-16T06:14:46.641Z,101207.83
2018-07-16T06:17:14.935Z,101217.34
2018-07-16T06:19:43.230Z,101206.19
2018-07-16T06:22:11.513Z,101201.53
2018-07-16T06:24:39.900Z,101203.39
2018-07-16T06:27:08.193Z,101199.87
2018-07-16T06:29:36.428Z,101205.81
2018-07-16T06:32:04.701Z,101191.90
2018-07-16T06:34:32.905Z,101198.98
2018-07-16T06:37:01.199Z,101197.08
2018-07-16T06:39:29.429Z,101192.73
2018-07-16T06:41:57.712Z,101184.56
2018-07-16T06:44:25.964Z,101184.20
2018-07-16T06:46:54.875Z,101187.44
2018-07-16T06:49:23.176Z,101191.48
2018-07-16T06:51:52.622Z,101192.78
2018-07-16T06:54:22.289Z,101194.33
2018-07-16T07:01:30.847Z,101190.03
2018-07-16T07:03:59.128Z,101187.03
2018-07-16T07:06:27.432Z,101183.46
2018-07-16T07:08:55.686Z,101178.52
2018-07-16T07:11:23.956Z,101181.27
2018-07-16T07:13:52.237Z,101177.38
2018-07-16T07:16:20.596Z,101185.52
2018-07-16T07:18:48.911Z,101179.58
2018-07-16T07:21:17.273Z,101179.95
2018-07-16T07:23:45.553Z,101180.09
2018-07-16T07:26:13.942Z,101178.95
2018-07-16T07:28:42.177Z,101179.20
2018-07-16T07:31:10.475Z,101173.80
2018-07-16T07:33:38.692Z,101173.26
2018-07-16T07:36:07.047Z,101166.78
2018-07-16T07:38:35.244Z,101161.28
2018-07-16T07:41:03.530Z,101158.45
2018-07-16T07:43:31.756Z,101160.33
2018-07-16T07:45:59.992Z,101163.56
2018-07-16T07:48:28.212Z,101156.97
2018-07-16T07:50:56.480Z,101154.29
2018-07-16T07:53:24.729Z,101153.98
2018-07-16T07:55:53.001Z,101152.86
2018-07-16T07:58:21.238Z,101157.08
2018-07-16T08:00:49.533Z,101146.08
2018-07-16T08:03:17.819Z,101147.17
2018-07-16T08:05:51.549Z,101147.42
2018-07-16T08:08:19.852Z,101146.95
2018-07-16T08:10:48.154Z,101147.75
2018-07-16T08:13:16.451Z,101149.09
2018-07-16T08:15:44.702Z,101147.88
2018-07-16T08:18:13.168Z,101144.23
2018-07-16T08:20:41.513Z,101146.25
2018-07-16T08:23:09.849Z,101145.10
2018-07-16T08:25:38.133Z,101147.81
2018-07-16T08:28:06.472Z,101141.58
2018-07-16T08:30:34.684Z,101142.88
2018-07-16T08:33:02.970Z,101141.75
2018-07-16T08:35:31.247Z,101138.31
2018-07-16T08:37:59.508Z,101140.39
2018-07-16T08:40:27.896Z,101139.42
2018-07-16T08:42:56.253Z,101135.34
2018-07-16T08:45:24.518Z,101136.48
2018-07-16T08:47:52.786Z,101127.55
2018-07-16T08:50:21.079Z,101135.75
2018-07-16T08:52:49.396Z,101135.04
2018-07-16T08:55:17.615Z,101137.44
2018-07-16T08:57:45.926Z,101135.69
2018-07-16T09:00:14.179Z,101134.34
2018-07-16T09:02:42.466Z,101138.20
2018-07-16T09:05:10.700Z,101131.98
2018-07-16T09:07:38.979Z,101136.59
2018-07-16T09:10:07.196Z,101134.95
2018-07-16T09:12:46.052Z,101136.64
2018-07-16T09:15:45.567Z,101132.06
2018-07-16T09:18:13.911Z,101128.50
2018-07-16T09:20:42.155Z,101124.20
2018-07-16T09:23:10.480Z,101122.70
2018-07-16T09:25:38.807Z,101118.32
2018-07-16T09:28:07.317Z,101132.20
2018-07-16T09:30:35.594Z,101130.45
2018-07-16T09:33:03.834Z,101128.81
2018-07-16T09:35:32.223Z,101125.81
2018-07-16T09:38:00.547Z,101126.16
2018-07-16T09:40:28.949Z,101122.55
2018-07-16T09:42:57.194Z,101117.08
2018-07-16T09:45:25.523Z,101123.97
2018-07-16T09:47:53.879Z,101117.52
2018-07-16T09:50:22.153Z,101119.84
2018-07-16T09:52:50.395Z,101121.98
2018-07-16T09:55:18.664Z,101117.83
2018-07-16T09:57:46.894Z,101106.77
2018-07-16T10:00:19.355Z,101107.22
2018-07-16T10:02:47.623Z,101101.77
2018-07-16T10:05:15.910Z,101112.17
2018-07-16T10:07:44.169Z,101103.30
2018-07-16T10:10:12.629Z,101104.61
2018-07-16T10:12:40.889Z,101103.58
2018-07-16T10:15:09.259Z,101102.72
2018-07-16T10:17:37.544Z,101098.35
2018-07-16T10:20:05.903Z,101094.95
2018-07-16T10:22:34.125Z,101098.52
2018-07-16T10:25:02.422Z,101089.73
2018-07-16T10:27:30.817Z,101085.61
2018-07-16T10:29:59.275Z,101079.42
2018-07-16T10:32:27.528Z,101085.30
2018-07-16T10:34:56.122Z,101086.72
2018-07-16T10:37:24.498Z,101077.03
2018-07-16T10:39:52.797Z,101070.93
2018-07-16T10:42:21.052Z,101080.73
2018-07-16T10:44:49.390Z,101075.79
2018-07-16T10:47:17.659Z,101068.63
2018-07-16T10:49:46.045Z,101071.14
2018-07-16T10:52:14.244Z,101072.54
2018-07-16T10:54:42.856Z,101070.68
2018-07-16T10:57:11.531Z,101065.20
2018-07-16T10:59:39.824Z,101059.95
2018-07-16T11:02:08.123Z,101059.48
2018-07-16T11:04:36.387Z,101063.83
2018-07-16T11:07:04.662Z,101062.31
2018-07-16T11:09:32.907Z,101057.59
2018-07-16T11:12:01.173Z,101063.72
2018-07-16T11:14:29.588Z,101061.23
2018-07-16T11:16:57.911Z,101054.78
2018-07-16T11:19:26.160Z,101052.62
2018-07-16T11:21:54.483Z,101049.92
2018-07-16T11:24:22.738Z,101049.31
2018-07-16T11:26:51.143Z,101040.77
2018-07-16T11:29:19.870Z,101038.97
2018-07-16T11:31:48.181Z,101034.78
2018-07-16T11:34:16.432Z,101032.19
2018-07-16T11:36:44.720Z,101031.29
2018-07-16T11:39:12.974Z,101030.45
2018-07-16T11:41:41.289Z,101029.92
2018-07-16T11:44:09.642Z,101033.50
2018-07-16T11:46:37.994Z,101034.56
2018-07-16T11:49:06.384Z,101028.86
2018-07-16T11:51:34.722Z,101032.73
2018-07-16T11:54:02.968Z,101030.30
2018-07-16T11:56:31.872Z,101023.01
2018-07-16T11:59:00.439Z,101020.61
2018-07-16T12:01:28.702Z,101020.42
2018-07-16T12:03:57.069Z,101019.25
2018-07-16T12:06:25.757Z,101008.81
2018-07-16T12:08:55.517Z,101016.80
2018-07-16T12:11:24.157Z,101007.66
2018-07-16T12:13:52.839Z,101005.69
2018-07-16T12:16:21.110Z,101006.55
2018-07-16T12:18:49.456Z,101003.06
2018-07-16T12:21:17.765Z,101002.83
2018-07-16T12:23:46.010Z,100995.13
2018-07-16T12:26:14.308Z,100992.16
2018-07-16T12:28:42.585Z,100993.02
2018-07-16T12:31:10.886Z,100982.58
2018-07-16T12:33:39.112Z,100987.20
2018-07-16T12:36:07.384Z,100978.38
2018-07-16T12:38:35.660Z,100993.19
2018-07-16T12:41:04.339Z,100984.88
2018-07-16T12:43:32.682Z,100979.78
2018-07-16T12:46:00.937Z,100971.16
2018-07-16T12:48:29.227Z,100967.41
2018-07-16T12:50:57.541Z,100974.23
2018-07-16T12:53:25.947Z,100975.97
2018-07-16T12:55:54.193Z,100962.63
2018-07-16T12:58:22.479Z,100960.89
2018-07-16T13:00:50.765Z,100959.97
2018-07-16T13:03:19.042Z,100958.94
2018-07-16T13:05:47.357Z,100949.14
2018-07-16T13:08:15.828Z,100948.55
2018-07-16T13:10:44.106Z,100947.23
2018-07-16T13:13:12.380Z,100947.40
2018-07-16T13:15:40.686Z,100946.48
2018-07-16T13:18:09.116Z,100941.33
2018-07-16T13:20:37.427Z,100942.78
2018-07-16T13:23:05.788Z,100935.88
2018-07-16T13:25:34.188Z,100931.75
2018-07-16T13:28:02.605Z,100930.95
2018-07-16T13:30:30.864Z,100924.75
2018-07-16T13:32:59.296Z,100917.58
2018-07-16T13:35:27.609Z,100904.30
2018-07-16T13:37:55.943Z,100916.48
2018-07-16T13:40:24.311Z,100912.66
2018-07-16T13:42:52.916Z,100910.95
2018-07-16T13:45:21.196Z,100901.61
2018-07-16T13:47:49.502Z,100898.81
2018-07-16T13:50:17.773Z,100905.47
2018-07-16T13:52:46.116Z,100895.03
2018-07-16T13:55:14.280Z,100893.54
2018-07-16T13:57:42.584Z,100896.09
2018-07-16T14:00:10.829Z,100890.25
2018-07-16T14:02:39.145Z,100895.56
2018-07-16T14:05:07.440Z,100893.44
2018-07-16T14:07:35.746Z,100887.77
2018-07-16T14:10:04.009Z,100882.29
2018-07-16T14:12:32.346Z,100878.02
2018-07-16T14:15:00.736Z,100878.59
2018-07-16T14:17:29.067Z,100876.64
2018-07-16T14:19:57.393Z,100873.20
2018-07-16T14:22:25.841Z,100867.77
2018-07-16T14:24:54.133Z,100865.35
2018-07-16T14:27:22.370Z,100858.55
2018-07-16T14:29:50.627Z,100862.32
2018-07-16T14:32:18.923Z,100863.02
2018-07-16T14:34:47.268Z,100853.42
2018-07-16T14:37:15.667Z,100852.77
2018-07-16T14:39:44.069Z,100852.45
2018-07-16T14:42:12.618Z,100854.66
2018-07-16T14:44:41.122Z,100856.02
2018-07-16T14:47:09.423Z,100856.86
2018-07-16T14:49:37.714Z,100856.04
2018-07-16T14:52:06.204Z,100856.56
2018-07-16T14:54:34.496Z,100854.20
2018-07-16T14:57:02.856Z,100859.67
2018-07-16T14:59:31.184Z,100849.25
2018-07-16T15:01:59.478Z,100856.44
2018-07-16T15:04:27.976Z,100856.27
2018-07-16T15:06:56.281Z,100852.82
2018-07-16T15:09:24.521Z,100856.52
2018-07-16T15:11:52.800Z,100853.77
2018-07-16T15:14:21.297Z,100843.24
2018-07-16T15:16:49.612Z,100849.45
2018-07-16T15:19:17.912Z,100847.39
2018-07-16T15:21:46.337Z,100843.36
2018-07-16T15:24:14.554Z,100840.45
2018-07-16T15:26:42.881Z,100844.63
2018-07-16T15:29:11.240Z,100847.74
2018-07-16T15:31:39.473Z,100850.89
2018-07-16T15:34:07.863Z,100845.94
2018-07-16T15:36:36.144Z,100843.45
2018-07-16T15:39:04.828Z,100846.27
2018-07-16T15:41:33.227Z,100842.69
2018-07-16T15:44:01.513Z,100843.02
2018-07-16T15:46:29.812Z,100844.59
2018-07-16T15:48:58.117Z,100841.14
2018-07-16T15:51:26.549Z,100836.78
2018-07-16T15:53:54.788Z,100834.67
2018-07-16T15:56:23.051Z,100837.69
2018-07-16T15:58:51.348Z,100838.14
2018-07-16T16:01:19.659Z,100827.75
2018-07-16T16:03:47.913Z,100828.30
2018-07-16T16:06:16.200Z,100829.63
2018-07-16T16:08:44.455Z,100821.21
2018-07-16T16:11:12.751Z,100831.48
2018-07-16T16:13:41.070Z,100822.31
2018-07-16T16:16:09.366Z,100824.30
2018-07-16T16:18:37.777Z,100826.59
2018-07-16T16:21:06.213Z,100824.14
2018-07-16T16:23:34.538Z,100821.86
2018-07-16T16:26:02.927Z,100822.55
2018-07-16T16:28:31.177Z,100824.27
2018-07-16T16:30:59.437Z,100818.62
2018-07-16T16:33:27.803Z,100821.27
2018-07-16T16:35:56.083Z,100814.96
2018-07-16T16:38:24.379Z,100811.16
2018-07-16T16:40:52.672Z,100809.91
2018-07-16T16:43:21.007Z,100814.15
2018-07-16T16:45:49.411Z,100814.47
2018-07-16T16:48:17.844Z,100823.33
2018-07-16T16:50:46.196Z,100814.37
2018-07-16T16:53:14.688Z,100808.39
2018-07-16T16:55:42.982Z,100814.28
2018-07-16T16:58:11.298Z,100814.88
2018-07-16T17:00:39.704Z,100810.16
2018-07-16T17:03:07.998Z,100806.71
2018-07-16T17:05:36.409Z,100802.24
2018-07-16T17:08:04.799Z,100805.09
2018-07-16T17:10:33.205Z,100806.70
2018-07-16T17:13:01.417Z,100803.16
2018-07-16T17:15:29.850Z,100809.45
2018-07-16T17:17:58.164Z,100807.96
2018-07-16T17:20:26.439Z,100806.92
2018-07-16T17:22:54.692Z,100807.50
2018-07-16T17:25:23.302Z,100804.72
2018-07-16T17:27:51.561Z,100805.88
2018-07-16T17:30:19.873Z,100812.69
2018-07-16T17:32:48.135Z,100811.20
2018-07-16T17:35:16.521Z,100808.31
2018-07-16T17:37:44.886Z,100814.75
2018-07-16T17:40:13.173Z,100813.00
2018-07-16T17:42:41.384Z,100809.02
2018-07-16T17:45:09.652Z,100813.11
2018-07-16T17:47:37.939Z,100812.45
2018-07-16T17:50:06.945Z,100811.77
2018-07-16T17:52:35.891Z,100812.34
2018-07-16T17:55:04.838Z,100812.91
2018-07-16T17:57:33.072Z,100817.05
2018-07-16T18:00:01.441Z,100816.66
2018-07-16T18:02:29.857Z,100812.57
2018-07-16T18:04:58.136Z,100815.65
2018-07-16T18:07:26.621Z,100821.16
2018-07-16T18:09:55.012Z,100814.83
2018-07-16T18:12:23.671Z,100819.30
2018-07-16T18:14:52.224Z,100820.01
2018-07-16T18:17:20.542Z,100823.55
2018-07-16T18:19:48.916Z,100824.82
2018-07-16T18:22:17.175Z,100827.64
2018-07-16T18:24:45.445Z,100829.52
2018-07-16T18:27:13.841Z,100830.73
2018-07-16T18:29:42.173Z,100833.37
2018-07-16T18:32:10.489Z,100836.80
2018-07-16T18:34:38.932Z,100839.21
2018-07-16T18:37:07.252Z,100843.79
2018-07-16T18:39:35.565Z,100837.91
2018-07-16T18:42:03.965Z,100842.41
2018-07-16T18:44:32.394Z,100844.29
2018-07-16T18:47:00.715Z,100846.41
2018-07-16T18:49:29.176Z,100848.28
2018-07-16T18:51:57.375Z,100844.94
2018-07-16T18:54:25.649Z,100851.89
2018-07-16T18:56:53.904Z,100849.01
2018-07-16T18:59:22.390Z,100852.67
2018-07-16T19:01:50.722Z,100852.42
2018-07-16T19:04:19.028Z,100865.83
2018-07-16T19:06:47.518Z,100866.49
2018-07-16T19:09:15.780Z,100861.63
2018-07-16T19:11:44.202Z,100858.54
2018-07-16T19:14:12.594Z,100860.86
2018-07-16T19:16:40.872Z,100870.34
2018-07-16T19:19:09.436Z,100869.98
2018-07-16T19:21:37.740Z,100878.23
2018-07-16T19:24:06.029Z,100861.23
2018-07-16T19:26:34.355Z,100861.04
2018-07-16T19:29:02.661Z,100857.60
2018-07-16T19:31:31.006Z,100867.42
2018-07-16T19:33:59.279Z,100872.30
2018-07-16T19:36:27.689Z,100876.63
2018-07-16T19:38:56.149Z,100872.96
2018-07-16T19:41:24.310Z,100882.64
2018-07-16T19:43:52.598Z,100878.66
2018-07-16T19:46:20.923Z,100872.40
2018-07-16T19:48:49.264Z,100883.21
2018-07-16T19:51:17.606Z,100876.89
2018-07-16T19:53:45.894Z,100885.50
2018-07-16T19:56:14.381Z,100879.51
2018-07-16T19:58:42.655Z,100884.77
2018-07-16T20:01:10.919Z,100883.95
2018-07-16T20:03:39.236Z,100877.55
2018-07-16T20:06:07.535Z,100881.93
2018-07-16T20:08:36.023Z,100882.33
2018-07-16T20:11:04.253Z,100884.33
2018-07-16T20:13:32.522Z,100886.25
2018-07-16T20:16:00.981Z,100885.93
2018-07-16T20:18:29.237Z,100879.27
2018-07-16T20:20:58.785Z,100889.03
2018-07-16T20:23:27.082Z,100884.04
2018-07-16T20:25:57.626Z,100882.28
2018-07-16T20:28:26.164Z,100884.86
2018-07-16T20:30:54.484Z,100884.68
2018-07-16T20:33:22.934Z,100890.78
2018-07-16T20:35:51.268Z,100888.06
2018-07-16T20:38:19.554Z,100883.30
2018-07-16T20:40:48.036Z,100888.45
2018-07-16T20:43:16.301Z,100890.80
2018-07-16T20:45:44.524Z,100891.52
2018-07-16T20:48:12.724Z,100893.77
2018-07-16T20:50:41.015Z,100887.90
2018-07-16T20:53:09.315Z,100886.19
2018-07-16T20:55:37.596Z,100890.54
2018-07-16T20:58:06.701Z,100890.63
2018-07-16T21:00:34.993Z,100896.20
2018-07-16T21:03:03.214Z,100894.09
2018-07-16T21:05:31.526Z,100896.45
2018-07-16T21:07:59.828Z,100899.11
2018-07-16T21:10:28.204Z,100895.47
2018-07-16T21:12:57.272Z,100901.20
2018-07-16T21:15:25.762Z,100899.75
2018-07-16T21:17:54.089Z,100897.83
2018-07-16T21:20:22.524Z,100910.72
2018-07-16T21:22:50.865Z,100912.23
2018-07-16T21:25:19.254Z,100913.44
2018-07-16T21:27:47.554Z,100907.58
2018-07-16T21:30:15.863Z,100904.42
2018-07-16T21:32:44.215Z,100906.81
2018-07-16T21:35:12.561Z,100901.87
2018-07-16T21:37:40.983Z,100897.03
2018-07-16T21:40:09.308Z,100901.65
2018-07-16T21:42:37.853Z,100897.47
2018-07-16T21:45:06.213Z,100905.83
2018-07-16T21:47:34.563Z,100907.34
2018-07-16T21:50:02.827Z,100909.45
2018-07-16T21:52:31.117Z,100904.91
2018-07-16T21:54:59.413Z,100906.54
2018-07-16T21:57:27.664Z,100913.06
2018-07-16T21:59:55.958Z,100908.31
2018-07-16T22:02:24.237Z,100915.64
2018-07-16T22:04:52.715Z,100905.45
2018-07-16T22:07:21.420Z,100914.18
2018-07-16T22:09:50.532Z,100919.25
2018-07-16T22:12:18.780Z,100917.08
2018-07-16T22:14:47.267Z,100920.41
2018-07-16T22:17:15.539Z,100913.52
2018-07-16T22:19:43.767Z,100913.82
2018-07-16T22:22:12.002Z,100913.27
2018-07-16T22:24:44.135Z,100911.59
2018-07-16T22:27:12.577Z,100912.47
2018-07-16T22:29:41.190Z,100918.91
2018-07-16T22:32:09.473Z,100915.73
2018-07-16T22:34:39.381Z,100918.91
2018-07-16T22:37:08.593Z,100927.88
2018-07-16T22:39:36.861Z,100917.66
2018-07-16T22:42:05.110Z,100928.64
2018-07-16T22:44:37.397Z,100928.05
2018-07-16T22:47:08.309Z,100925.67
2018-07-16T22:49:37.453Z,100924.70
2018-07-16T22:52:06.443Z,100929.42
2018-07-16T22:54:35.054Z,100929.42
2018-07-16T22:57:04.518Z,100931.19
2018-07-16T22:59:33.860Z,100928.02
2018-07-16T23:02:02.821Z,100933.16
2018-07-16T23:04:33.329Z,100932.61
2018-07-16T23:07:03.424Z,100927.29
2018-07-16T23:09:33.171Z,100929.77
2018-07-16T23:12:02.645Z,100930.75
2018-07-16T23:14:31.677Z,100935.34
2018-07-16T23:17:00.702Z,100933.57
2018-07-16T23:19:29.756Z,100934.44
2018-07-16T23:21:58.819Z,100923.80
2018-07-16T23:24:27.701Z,100927.22
2018-07-16T23:26:56.433Z,100923.81
2018-07-16T23:29:25.315Z,100917.88
2018-07-16T23:31:55.063Z,100924.70
2018-07-16T23:34:26.971Z,100925.37
2018-07-16T23:36:57.055Z,100920.11
2018-07-16T23:39:25.999Z,100917.73
2018-07-16T23:41:56.309Z,100920.06
2018-07-16T23:44:25.467Z,100917.30
2018-07-16T23:46:53.734Z,100920.75
2018-07-16T23:49:21.946Z,100922.42
2018-07-16T23:51:50.162Z,100923.69
2018-07-16T23:54:18.406Z,100924.28
2018-07-16T23:56:46.722Z,100924.59
2018-07-16T23:59:14.937Z,100921.84
